createdAt,value
2022-10-17T00:02:04.579Z,84.45
2022-10-17T00:04:32.086Z,84.02
2022-10-17T00:07:13.931Z,83.92
2022-10-17T00:09:44.220Z,83.76
2022-10-17T00:12:11.487Z,83.52
2022-10-17T00:14:38.821Z,83.57
2022-10-17T00:17:06.306Z,83.71
2022-10-17T00:19:33.506Z,83.89
2022-10-17T00:22:01.085Z,83.83
2022-10-17T00:24:31.507Z,84.05
2022-10-17T00:26:58.968Z,84.06
2022-10-17T00:29:26.496Z,84.04
2022-10-17T00:31:55.871Z,83.93
2022-10-17T00:34:25.108Z,83.91
2022-10-17T00:36:52.700Z,83.91
2022-10-17T00:39:20.445Z,83.86
2022-10-17T00:41:47.923Z,83.98
2022-10-17T00:44:34.470Z,83.94
2022-10-17T00:47:09.142Z,84.13
2022-10-17T00:49:39.016Z,84.25
2022-10-17T00:52:11.260Z,84.01
2022-10-17T00:54:44.137Z,84.16
2022-10-17T00:57:12.115Z,84.21
2022-10-17T00:59:41.430Z,84.23
2022-10-17T01:02:15.833Z,84.53
2022-10-17T01:04:46.311Z,84.33
2022-10-17T01:07:13.748Z,83.93
2022-10-17T01:09:43.922Z,83.96
2022-10-17T01:12:30.124Z,83.80
2022-10-17T01:14:57.964Z,84.17
2022-10-17T01:17:53.827Z,84.43
2022-10-17T01:20:46.125Z,84.05
2022-10-17T01:23:36.407Z,84.40
2022-10-17T01:26:18.836Z,84.67
2022-10-17T01:29:01.176Z,84.95
2022-10-17T01:31:54.703Z,85.00
2022-10-17T01:34:35.810Z,84.98
2022-10-17T01:37:45.307Z,84.31
2022-10-17T01:40:25.384Z,84.27
2022-10-17T01:43:03.899Z,84.05
2022-10-17T01:45:40.680Z,83.86
2022-10-17T01:48:16.377Z,83.71
2022-10-17T01:50:51.371Z,83.72
2022-10-17T01:53:27.208Z,83.78
2022-10-17T01:55:59.420Z,83.84
2022-10-17T01:58:36.363Z,84.02
2022-10-17T02:01:07.395Z,83.94
2022-10-17T02:03:51.648Z,84.19
2022-10-17T02:06:19.031Z,84.31
2022-10-17T02:08:49.578Z,84.19
2022-10-17T02:11:26.160Z,84.61
2022-10-17T02:13:53.789Z,84.49
2022-10-17T02:16:29.882Z,84.45
2022-10-17T02:19:02.762Z,84.75
2022-10-17T02:22:09.096Z,85.05
2022-10-17T02:24:56.948Z,85.16
2022-10-17T02:27:46.085Z,85.25
2022-10-17T02:30:19.788Z,85.55
2022-10-17T02:32:55.469Z,84.83
2022-10-17T02:35:26.869Z,84.55
2022-10-17T02:37:55.273Z,84.78
2022-10-17T02:40:39.548Z,85.41
2022-10-17T02:43:07.547Z,84.94
2022-10-17T02:45:37.381Z,84.59
2022-10-17T02:48:36.969Z,84.69
2022-10-17T02:51:26.018Z,84.87
2022-10-17T02:54:09.731Z,84.96
2022-10-17T02:56:46.089Z,84.70
2022-10-17T02:59:17.268Z,84.74
2022-10-17T03:01:44.891Z,84.93
2022-10-17T03:04:14.341Z,85.09
2022-10-17T03:06:44.420Z,85.14
2022-10-17T03:09:12.127Z,84.66
2022-10-17T03:11:41.775Z,84.69
2022-10-17T03:14:23.846Z,84.47
2022-10-17T03:16:52.449Z,84.45
2022-10-17T03:19:21.322Z,84.62
2022-10-17T03:22:03.106Z,84.97
2022-10-17T03:24:31.122Z,85.00
2022-10-17T03:26:59.512Z,85.15
2022-10-17T03:29:27.185Z,84.88
2022-10-17T03:31:54.809Z,85.04
2022-10-17T03:34:22.836Z,85.27
2022-10-17T03:36:50.624Z,85.24
2022-10-17T03:39:19.126Z,85.04
2022-10-17T03:41:46.288Z,85.04
2022-10-17T03:44:15.371Z,85.23
2022-10-17T03:46:43.341Z,85.17
2022-10-17T03:49:10.737Z,84.94
2022-10-17T03:51:38.010Z,85.20
2022-10-17T03:54:09.285Z,85.47
2022-10-17T03:56:37.827Z,85.44
2022-10-17T03:59:14.707Z,84.89
2022-10-17T04:01:44.166Z,84.81
2022-10-17T04:04:12.853Z,84.81
2022-10-17T04:06:40.792Z,84.80
2022-10-17T04:09:09.984Z,85.00
2022-10-17T04:11:56.438Z,84.99
2022-10-17T04:14:24.459Z,85.01
2022-10-17T04:16:53.031Z,84.63
2022-10-17T04:19:21.643Z,84.33
2022-10-17T04:21:50.258Z,84.26
2022-10-17T04:24:18.506Z,84.87
2022-10-17T04:26:50.892Z,85.30
2022-10-17T04:29:18.806Z,85.06
2022-10-17T04:31:47.694Z,85.72
2022-10-17T04:34:19.709Z,85.76
2022-10-17T04:36:47.433Z,85.66
2022-10-17T04:39:30.054Z,85.25
2022-10-17T04:41:58.451Z,85.54
2022-10-17T04:44:26.004Z,85.38
2022-10-17T04:46:53.553Z,85.30
2022-10-17T04:49:21.053Z,85.22
2022-10-17T04:51:50.166Z,85.40
2022-10-17T04:54:31.945Z,85.43
2022-10-17T04:57:08.587Z,85.40
2022-10-17T04:59:36.102Z,85.55
2022-10-17T05:02:27.041Z,85.40
2022-10-17T05:04:55.543Z,85.67
2022-10-17T05:07:22.991Z,85.61
2022-10-17T05:10:03.377Z,85.77
2022-10-17T05:12:31.852Z,85.54
2022-10-17T05:14:59.707Z,85.53
2022-10-17T05:17:28.195Z,85.69
2022-10-17T05:19:55.542Z,85.73
2022-10-17T05:22:23.239Z,85.59
2022-10-17T05:24:50.981Z,85.85
2022-10-17T05:27:19.511Z,85.86
2022-10-17T05:29:46.814Z,85.57
2022-10-17T05:32:21.758Z,85.53
2022-10-17T05:34:49.195Z,85.36
2022-10-17T05:37:16.946Z,85.78
2022-10-17T05:39:50.714Z,85.64
2022-10-17T05:42:20.046Z,85.90
2022-10-17T05:44:48.051Z,85.84
2022-10-17T05:47:16.968Z,85.89
2022-10-17T05:49:48.670Z,85.97
2022-10-17T05:52:21.653Z,86.12
2022-10-17T05:55:06.170Z,86.24
2022-10-17T05:57:34.069Z,85.83
2022-10-17T06:00:01.882Z,85.59
2022-10-17T06:02:45.389Z,85.63
2022-10-17T06:05:14.357Z,85.74
2022-10-17T06:07:42.168Z,85.89
2022-10-17T06:10:12.511Z,85.91
2022-10-17T06:12:39.859Z,85.99
2022-10-17T06:15:08.857Z,86.09
2022-10-17T06:17:50.617Z,86.19
2022-10-17T06:20:17.733Z,85.94
2022-10-17T06:22:59.535Z,86.45
2022-10-17T06:25:47.206Z,86.36
2022-10-17T06:28:14.665Z,86.48
2022-10-17T06:30:42.301Z,86.40
2022-10-17T06:33:09.855Z,86.50
2022-10-17T06:35:37.543Z,86.55
2022-10-17T06:38:04.960Z,86.69
2022-10-17T06:40:33.290Z,86.79
2022-10-17T06:43:00.547Z,86.80
2022-10-17T06:45:47.342Z,86.77
2022-10-17T06:48:33.360Z,87.00
2022-10-17T06:51:19.214Z,87.10
2022-10-17T06:53:54.477Z,87.18
2022-10-17T06:56:48.165Z,87.20
2022-10-17T06:59:34.311Z,87.27
2022-10-17T07:02:11.911Z,87.10
2022-10-17T07:04:39.158Z,87.18
2022-10-17T07:07:06.332Z,87.03
2022-10-17T07:09:35.152Z,87.35
2022-10-17T07:12:16.833Z,87.46
2022-10-17T07:15:00.550Z,87.61
2022-10-17T07:17:28.196Z,87.81
2022-10-17T07:20:10.502Z,87.86
2022-10-17T07:22:53.150Z,87.83
2022-10-17T07:25:20.544Z,87.36
2022-10-17T07:27:55.596Z,87.58
2022-10-17T07:30:23.894Z,87.52
2022-10-17T07:33:00.982Z,87.30
2022-10-17T07:35:28.591Z,87.49
2022-10-17T07:37:56.812Z,87.53
2022-10-17T07:40:24.704Z,87.57
2022-10-17T07:42:53.071Z,87.47
2022-10-17T07:45:23.204Z,87.78
2022-10-17T07:47:50.486Z,87.92
2022-10-17T07:50:18.092Z,88.17
2022-10-17T07:52:59.945Z,88.18
2022-10-17T07:55:27.471Z,88.17
2022-10-17T07:57:54.880Z,88.46
2022-10-17T08:00:36.801Z,88.36
2022-10-17T08:03:04.957Z,88.32
2022-10-17T08:05:33.056Z,88.04
2022-10-17T08:08:14.694Z,87.69
2022-10-17T08:10:42.073Z,87.39
2022-10-17T08:13:09.863Z,87.22
2022-10-17T08:15:38.579Z,87.18
2022-10-17T08:18:06.173Z,87.28
2022-10-17T08:20:33.430Z,87.25
2022-10-17T08:23:00.561Z,87.20
2022-10-17T08:25:27.709Z,87.24
2022-10-17T08:27:55.036Z,86.87
2022-10-17T08:30:22.390Z,86.78
2022-10-17T08:32:49.771Z,87.19
2022-10-17T08:35:17.240Z,87.07
2022-10-17T08:38:01.265Z,87.08
2022-10-17T08:40:34.978Z,86.98
2022-10-17T08:43:22.129Z,86.82
2022-10-17T08:46:02.651Z,86.66
2022-10-17T08:48:33.671Z,86.73
2022-10-17T08:51:04.738Z,86.84
2022-10-17T08:53:51.423Z,86.54
2022-10-17T08:56:47.642Z,86.70
2022-10-17T08:59:18.342Z,86.43
2022-10-17T09:01:54.309Z,86.31
2022-10-17T09:04:53.098Z,86.34
2022-10-17T09:07:58.075Z,86.20
2022-10-17T09:10:59.227Z,86.37
2022-10-17T09:13:52.226Z,86.38
2022-10-17T09:17:03.091Z,86.06
2022-10-17T09:19:45.929Z,85.84
2022-10-17T09:22:23.728Z,85.87
2022-10-17T09:24:56.349Z,85.62
2022-10-17T09:27:40.731Z,85.56
2022-10-17T09:30:51.567Z,85.56
2022-10-17T09:33:35.443Z,85.56
2022-10-17T09:36:29.863Z,85.71
2022-10-17T09:39:00.483Z,85.73
2022-10-17T09:41:45.465Z,85.38
2022-10-17T09:44:18.871Z,85.24
2022-10-17T09:47:06.501Z,84.92
2022-10-17T09:49:37.327Z,84.85
2022-10-17T09:52:11.593Z,84.82
2022-10-17T09:54:46.260Z,84.82
2022-10-17T09:57:15.628Z,84.55
2022-10-17T09:59:55.842Z,84.59
2022-10-17T10:02:25.408Z,84.31
2022-10-17T10:05:19.583Z,84.04
2022-10-17T10:08:12.804Z,83.70
2022-10-17T10:10:42.741Z,83.66
2022-10-17T10:13:13.043Z,83.88
2022-10-17T10:15:46.822Z,83.99
2022-10-17T10:18:35.850Z,83.70
2022-10-17T10:21:09.771Z,83.47
2022-10-17T10:24:10.883Z,83.20
2022-10-17T10:26:48.611Z,82.99
2022-10-17T10:29:31.815Z,82.51
2022-10-17T10:32:32.765Z,82.60
2022-10-17T10:35:20.605Z,82.34
2022-10-17T10:37:54.632Z,82.05
2022-10-17T10:40:52.589Z,81.92
2022-10-17T10:43:39.235Z,81.66
2022-10-17T10:46:20.215Z,81.34
2022-10-17T10:48:54.764Z,81.14
2022-10-17T10:51:30.392Z,80.91
2022-10-17T10:54:05.043Z,80.76
2022-10-17T10:56:51.292Z,80.62
2022-10-17T10:59:26.112Z,80.43
2022-10-17T11:02:12.187Z,80.17
2022-10-17T11:05:02.892Z,79.87
2022-10-17T11:07:36.367Z,79.84
2022-10-17T11:10:25.598Z,79.45
2022-10-17T11:13:22.393Z,79.25
2022-10-17T11:15:59.775Z,78.86
2022-10-17T11:18:39.800Z,78.73
2022-10-17T11:21:24.614Z,78.51
2022-10-17T11:24:10.090Z,78.27
2022-10-17T11:26:44.544Z,77.89
2022-10-17T11:29:13.406Z,77.39
2022-10-17T11:31:50.065Z,77.39
2022-10-17T11:34:46.200Z,77.33
2022-10-17T11:37:29.007Z,76.79
2022-10-17T11:40:01.941Z,76.83
2022-10-17T11:43:01.172Z,76.67
2022-10-17T11:45:34.823Z,76.63
2022-10-17T11:48:13.856Z,76.49
2022-10-17T11:53:56.167Z,75.81
2022-10-17T11:56:51.135Z,75.57
2022-10-17T11:59:49.762Z,75.53
2022-10-17T12:02:34.494Z,75.21
2022-10-17T12:05:19.800Z,75.04
2022-10-17T12:08:03.188Z,74.89
2022-10-17T12:10:58.279Z,74.77
2022-10-17T12:13:28.569Z,74.83
2022-10-17T12:15:58.269Z,74.27
2022-10-17T12:18:29.217Z,74.41
2022-10-17T12:20:58.736Z,74.29
2022-10-17T12:23:31.207Z,73.94
2022-10-17T12:26:03.283Z,73.90
2022-10-17T12:28:38.146Z,73.38
2022-10-17T12:31:27.465Z,73.46
2022-10-17T12:34:02.789Z,73.26
2022-10-17T12:36:30.088Z,73.03
2022-10-17T12:39:03.519Z,73.09
2022-10-17T12:41:46.055Z,72.70
2022-10-17T12:44:14.692Z,72.35
2022-10-17T12:46:51.261Z,72.38
2022-10-17T12:49:37.226Z,72.46
2022-10-17T12:52:34.605Z,72.30
2022-10-17T12:55:12.775Z,72.03
2022-10-17T12:57:50.117Z,72.12
2022-10-17T13:01:22.718Z,71.89
2022-10-17T13:03:47.727Z,71.59
2022-10-17T13:06:21.336Z,71.38
2022-10-17T13:08:56.853Z,70.70
2022-10-17T13:11:31.014Z,70.62
2022-10-17T13:14:01.788Z,70.58
2022-10-17T13:16:38.643Z,70.52
2022-10-17T13:19:18.332Z,70.56
2022-10-17T13:21:59.925Z,70.61
2022-10-17T13:24:32.695Z,70.23
2022-10-17T13:27:02.791Z,70.23
2022-10-17T13:29:33.945Z,70.24
2022-10-17T13:32:16.306Z,70.23
2022-10-17T13:34:44.272Z,70.09
2022-10-17T13:37:17.376Z,69.90
2022-10-17T13:39:55.666Z,69.85
2022-10-17T13:42:30.675Z,69.84
2022-10-17T13:44:59.271Z,69.70
2022-10-17T13:47:30.365Z,69.88
2022-10-17T13:49:58.830Z,69.90
2022-10-17T13:52:29.772Z,69.89
2022-10-17T13:55:19.752Z,69.82
2022-10-17T13:57:48.428Z,69.75
2022-10-17T14:00:21.552Z,69.76
2022-10-17T14:03:05.586Z,69.58
2022-10-17T14:05:36.736Z,69.52
2022-10-17T14:08:12.086Z,69.60
2022-10-17T14:10:44.788Z,69.56
2022-10-17T14:13:24.142Z,69.45
2022-10-17T14:15:55.403Z,69.51
2022-10-17T14:18:34.946Z,69.61
2022-10-17T14:24:28.398Z,69.42
2022-10-17T14:27:01.335Z,69.37
2022-10-17T14:29:50.576Z,69.34
2022-10-17T14:32:20.740Z,69.22
2022-10-17T14:35:01.430Z,69.33
2022-10-17T14:37:49.823Z,69.24
2022-10-17T14:40:25.748Z,69.27
2022-10-17T14:42:55.210Z,69.17
2022-10-17T14:45:29.441Z,68.99
2022-10-17T14:48:12.449Z,69.06
2022-10-17T14:50:40.428Z,69.09
2022-10-17T14:53:10.819Z,69.12
2022-10-17T14:55:40.297Z,69.23
2022-10-17T14:58:30.104Z,69.28
2022-10-17T15:00:59.740Z,69.24
2022-10-17T15:03:27.061Z,69.36
2022-10-17T15:05:55.501Z,69.16
2022-10-17T15:08:23.925Z,69.24
2022-10-17T15:10:52.255Z,69.22
2022-10-17T15:13:28.821Z,69.26
2022-10-17T15:15:57.471Z,69.23
2022-10-17T15:18:24.740Z,69.33
2022-10-17T15:20:59.781Z,69.34
2022-10-17T15:23:32.687Z,69.49
2022-10-17T15:26:01.244Z,69.60
2022-10-17T15:28:28.476Z,69.60
2022-10-17T15:30:55.762Z,69.79
2022-10-17T15:33:37.842Z,69.67
2022-10-17T15:36:05.088Z,69.79
2022-10-17T15:38:33.348Z,69.82
2022-10-17T15:41:00.924Z,69.90
2022-10-17T15:43:28.104Z,70.01
2022-10-17T15:45:56.032Z,70.07
2022-10-17T15:48:29.060Z,70.22
2022-10-17T15:50:57.152Z,70.32
2022-10-17T15:53:24.346Z,70.40
2022-10-17T15:55:51.894Z,70.47
2022-10-17T15:58:19.613Z,70.47
2022-10-17T16:00:47.909Z,70.49
2022-10-17T16:03:29.935Z,70.64
2022-10-17T16:06:14.149Z,70.76
2022-10-17T16:08:41.756Z,70.81
2022-10-17T16:11:40.204Z,70.88
2022-10-17T16:14:11.593Z,71.00
2022-10-17T16:16:53.207Z,71.07
2022-10-17T16:19:35.294Z,71.13
2022-10-17T16:22:04.639Z,71.17
2022-10-17T16:24:46.508Z,71.31
2022-10-17T16:27:13.868Z,71.40
2022-10-17T16:29:41.268Z,71.32
2022-10-17T16:32:09.237Z,71.52
2022-10-17T16:34:36.599Z,71.57
2022-10-17T16:37:03.973Z,71.65
2022-10-17T16:39:51.662Z,71.72
2022-10-17T16:42:20.351Z,71.83
2022-10-17T16:44:49.611Z,71.79
2022-10-17T16:47:18.658Z,71.96
2022-10-17T16:49:46.037Z,71.98
2022-10-17T16:52:14.237Z,72.03
2022-10-17T16:54:42.157Z,72.00
2022-10-17T16:57:09.532Z,72.07
2022-10-17T16:59:36.940Z,72.17
2022-10-17T17:02:04.746Z,72.32
2022-10-17T17:04:31.880Z,72.25
2022-10-17T17:06:59.334Z,72.34
2022-10-17T17:09:26.692Z,72.41
2022-10-17T17:11:53.888Z,72.45
2022-10-17T17:14:24.915Z,72.65
2022-10-17T17:16:55.227Z,72.68
2022-10-17T17:19:22.724Z,72.69
2022-10-17T17:21:51.302Z,72.70
2022-10-17T17:24:21.358Z,72.73
2022-10-17T17:26:54.690Z,72.81
2022-10-17T17:29:23.294Z,72.79
2022-10-17T17:31:50.941Z,72.89
2022-10-17T17:34:18.631Z,72.97
2022-10-17T17:36:45.983Z,73.07
2022-10-17T17:39:14.893Z,73.13
2022-10-17T17:41:45.131Z,73.08
2022-10-17T17:44:16.455Z,73.19
2022-10-17T17:46:44.850Z,73.27
2022-10-17T17:49:12.300Z,73.23
2022-10-17T17:51:54.035Z,73.32
2022-10-17T17:54:38.560Z,73.31
2022-10-17T17:57:08.453Z,73.45
2022-10-17T17:59:50.084Z,73.46
2022-10-17T18:02:17.495Z,73.64
2022-10-17T18:04:59.326Z,73.64
2022-10-17T18:07:27.010Z,73.64
2022-10-17T18:09:55.685Z,73.57
2022-10-17T18:12:23.180Z,73.74
2022-10-17T18:14:50.646Z,73.82
2022-10-17T18:17:17.931Z,73.87
2022-10-17T18:19:45.280Z,73.88
2022-10-17T18:22:12.625Z,73.95
2022-10-17T18:24:54.646Z,73.96
2022-10-17T18:27:22.188Z,74.08
2022-10-17T18:29:50.790Z,74.12
2022-10-17T18:32:18.484Z,74.16
2022-10-17T18:34:46.237Z,74.21
2022-10-17T18:37:13.530Z,74.31
2022-10-17T18:39:41.243Z,74.41
2022-10-17T18:42:08.601Z,74.29
2022-10-17T18:44:35.983Z,74.44
2022-10-17T18:47:07.447Z,74.45
2022-10-17T18:49:37.343Z,74.45
2022-10-17T18:52:06.205Z,74.58
2022-10-17T18:54:34.345Z,74.58
2022-10-17T18:57:01.775Z,74.63
2022-10-17T18:59:34.189Z,74.57
2022-10-17T19:02:24.093Z,74.74
2022-10-17T19:05:31.652Z,74.86
2022-10-17T19:08:49.984Z,74.88
2022-10-17T19:15:21.333Z,74.95
2022-10-17T19:18:21.190Z,75.09
2022-10-17T19:21:22.088Z,75.14
2022-10-17T19:24:45.459Z,75.20
2022-10-17T19:27:38.013Z,75.17
2022-10-17T19:30:06.191Z,75.20
2022-10-17T19:32:33.765Z,75.30
2022-10-17T19:35:01.494Z,75.45
2022-10-17T19:37:30.327Z,75.45
2022-10-17T19:40:13.005Z,75.49
2022-10-17T19:42:40.198Z,75.45
2022-10-17T19:45:08.529Z,75.38
2022-10-17T19:47:36.256Z,75.44
2022-10-17T19:52:31.732Z,75.58
2022-10-17T19:54:59.593Z,75.58
2022-10-17T19:57:26.969Z,75.61
2022-10-17T19:59:56.001Z,75.62
2022-10-17T20:02:23.442Z,75.66
2022-10-17T20:04:54.769Z,75.78
2022-10-17T20:07:39.259Z,75.72
2022-10-17T20:10:07.468Z,75.85
2022-10-17T20:12:34.522Z,75.84
2022-10-17T20:15:02.234Z,75.80
2022-10-17T20:17:29.506Z,75.73
2022-10-17T20:19:56.890Z,75.88
2022-10-17T20:22:24.664Z,75.96
2022-10-17T20:24:51.933Z,75.92
2022-10-17T20:27:19.068Z,75.95
2022-10-17T20:29:46.503Z,75.95
2022-10-17T20:32:13.996Z,75.92
2022-10-17T20:34:41.320Z,76.01
2022-10-17T20:37:08.764Z,76.12
2022-10-17T20:39:35.940Z,76.06
2022-10-17T20:42:17.586Z,76.12
2022-10-17T20:47:26.475Z,76.19
2022-10-17T20:50:14.292Z,76.04
2022-10-17T20:52:41.636Z,76.07
2022-10-17T20:55:09.209Z,76.22
2022-10-17T20:57:36.826Z,76.28
2022-10-17T21:00:04.976Z,76.31
2022-10-17T21:02:32.159Z,76.18
2022-10-17T21:04:59.390Z,76.32
2022-10-17T21:07:26.791Z,76.55
2022-10-17T21:09:54.250Z,76.50
2022-10-17T21:12:31.161Z,76.47
2022-10-17T21:15:09.697Z,76.57
2022-10-17T21:17:37.185Z,76.58
2022-10-17T21:20:05.154Z,76.73
2022-10-17T21:22:35.622Z,76.55
2022-10-17T21:25:03.113Z,76.58
2022-10-17T21:27:30.535Z,76.69
2022-10-17T21:29:57.762Z,76.65
2022-10-17T21:32:39.413Z,76.78
2022-10-17T21:35:12.463Z,76.72
2022-10-17T21:37:42.660Z,76.89
2022-10-17T21:40:10.839Z,76.93
2022-10-17T21:42:38.178Z,76.77
2022-10-17T21:45:25.850Z,76.80
2022-10-17T21:48:13.716Z,76.96
2022-10-17T21:50:41.337Z,76.96
2022-10-17T21:53:08.725Z,76.97
2022-10-17T21:55:37.343Z,76.89
2022-10-17T21:58:05.158Z,76.96
2022-10-17T22:00:32.461Z,77.31
2022-10-17T22:03:00.657Z,76.88
2022-10-17T22:05:29.993Z,77.15
2022-10-17T22:07:57.262Z,77.15
2022-10-17T22:10:24.475Z,77.08
2022-10-17T22:12:51.772Z,77.06
2022-10-17T22:15:18.808Z,77.01
2022-10-17T22:17:46.331Z,77.15
2022-10-17T22:20:14.001Z,77.28
2022-10-17T22:22:41.676Z,77.47
2022-10-17T22:25:09.411Z,77.35
2022-10-17T22:27:36.687Z,77.42
2022-10-17T22:30:05.391Z,77.41
2022-10-17T22:32:32.681Z,77.50
2022-10-17T22:35:00.039Z,77.47
2022-10-17T22:37:27.625Z,77.43
2022-10-17T22:39:55.229Z,77.43
2022-10-17T22:44:49.973Z,77.71
2022-10-17T22:47:32.036Z,77.58
2022-10-17T22:49:59.564Z,77.63
2022-10-17T22:52:27.109Z,77.63
2022-10-17T22:54:54.656Z,77.79
2022-10-17T22:57:36.508Z,77.66
2022-10-17T23:00:18.489Z,77.71
2022-10-17T23:02:45.689Z,77.90
2022-10-17T23:05:13.266Z,77.93
2022-10-17T23:07:40.694Z,77.93
2022-10-17T23:10:08.752Z,78.02
2022-10-17T23:12:50.445Z,77.97
2022-10-17T23:15:17.856Z,78.01
2022-10-17T23:18:00.907Z,77.93
2022-10-17T23:20:42.690Z,77.95
2022-10-17T23:23:10.198Z,77.85
2022-10-17T23:25:52.048Z,77.99
2022-10-17T23:28:19.933Z,78.03
2022-10-17T23:30:47.800Z,78.02
2022-10-17T23:33:15.263Z,77.81
2022-10-17T23:35:42.966Z,78.19
2022-10-17T23:38:10.554Z,78.05
2022-10-17T23:40:38.099Z,78.02
2022-10-17T23:43:05.496Z,77.97
2022-10-17T23:45:35.976Z,78.16
2022-10-17T23:48:05.074Z,77.86
2022-10-17T23:50:32.589Z,78.06
2022-10-17T23:52:59.901Z,78.09
2022-10-17T23:55:27.504Z,77.93
2022-10-17T23:57:55.024Z,78.02
